sensor_id;sensor_type;location;lat;lon;timestamp;P1;durP1;ratioP1;P2;durP2;ratioP2
1366;SDS011;16877;48.810;9.282;2024-01-30T00:00:51;9.43;;;8.43;;
1366;SDS011;16877;48.810;9.282;2024-01-30T00:03:18;12.00;;;10.07;;
1366;SDS011;16877;48.810;9.282;2024-01-30T00:05:45;10.10;;;9.10;;
1366;SDS011;16877;48.810;9.282;2024-01-30T00:08:13;10.80;;;8.97;;
1366;SDS011;16877;48.810;9.282;2024-01-30T00:10:39;9.87;;;8.80;;
1366;SDS011;16877;48.810;9.282;2024-01-30T00:13:06;11.67;;;9.50;;
1366;SDS011;16877;48.810;9.282;2024-01-30T00:15:33;11.07;;;9.57;;
1366;SDS011;16877;48.810;9.282;2024-01-30T00:18:00;10.90;;;8.87;;
1366;SDS011;16877;48.810;9.282;2024-01-30T00:20:27;10.90;;;9.30;;
1366;SDS011;16877;48.810;9.282;2024-01-30T00:22:53;9.80;;;7.97;;
1366;SDS011;16877;48.810;9.282;2024-01-30T00:25:22;9.50;;;8.53;;
1366;SDS011;16877;48.810;9.282;2024-01-30T00:27:48;10.73;;;9.07;;
1366;SDS011;16877;48.810;9.282;2024-01-30T00:30:15;9.47;;;8.50;;
1366;SDS011;16877;48.810;9.282;2024-01-30T00:32:42;11.13;;;8.33;;
1366;SDS011;16877;48.810;9.282;2024-01-30T00:35:09;10.50;;;9.47;;
1366;SDS011;16877;48.810;9.282;2024-01-30T00:37:36;10.23;;;8.20;;
1366;SDS011;16877;48.810;9.282;2024-01-30T00:40:03;9.43;;;8.53;;
1366;SDS011;16877;48.810;9.282;2024-01-30T00:42:32;10.63;;;9.13;;
1366;SDS011;16877;48.810;9.282;2024-01-30T00:44:59;8.97;;;8.07;;
1366;SDS011;16877;48.810;9.282;2024-01-30T00:47:25;9.93;;;8.90;;
1366;SDS011;16877;48.810;9.282;2024-01-30T00:49:54;11.10;;;9.60;;
1366;SDS011;16877;48.810;9.282;2024-01-30T00:52:20;9.70;;;8.13;;
1366;SDS011;16877;48.810;9.282;2024-01-30T00:54:47;8.83;;;7.43;;
1366;SDS011;16877;48.810;9.282;2024-01-30T00:57:14;10.83;;;8.73;;
1366;SDS011;16877;48.810;9.282;2024-01-30T00:59:42;8.20;;;7.40;;
1366;SDS011;16877;48.810;9.282;2024-01-30T01:02:08;10.47;;;7.93;;
1366;SDS011;16877;48.810;9.282;2024-01-30T01:04:35;9.70;;;8.50;;
1366;SDS011;16877;48.810;9.282;2024-01-30T01:07:02;10.10;;;8.60;;
1366;SDS011;16877;48.810;9.282;2024-01-30T01:09:29;10.90;;;9.20;;
1366;SDS011;16877;48.810;9.282;2024-01-30T01:11:55;9.27;;;8.00;;
1366;SDS011;16877;48.810;9.282;2024-01-30T01:14:22;7.90;;;7.10;;
1366;SDS011;16877;48.810;9.282;2024-01-30T01:16:50;8.07;;;6.90;;
1366;SDS011;16877;48.810;9.282;2024-01-30T01:19:16;10.10;;;8.13;;
1366;SDS011;16877;48.810;9.282;2024-01-30T01:21:42;9.93;;;8.00;;
1366;SDS011;16877;48.810;9.282;2024-01-30T01:24:09;9.30;;;8.03;;
1366;SDS011;16877;48.810;9.282;2024-01-30T01:26:36;8.20;;;7.20;;
1366;SDS011;16877;48.810;9.282;2024-01-30T01:29:02;9.53;;;8.53;;
1366;SDS011;16877;48.810;9.282;2024-01-30T01:31:34;9.13;;;8.20;;
1366;SDS011;16877;48.810;9.282;2024-01-30T01:34:06;9.73;;;7.70;;
1366;SDS011;16877;48.810;9.282;2024-01-30T01:36:32;9.30;;;8.30;;
1366;SDS011;16877;48.810;9.282;2024-01-30T01:38:59;8.37;;;7.27;;
1366;SDS011;16877;48.810;9.282;2024-01-30T01:41:29;8.07;;;7.03;;
1366;SDS011;16877;48.810;9.282;2024-01-30T01:43:56;9.63;;;8.30;;
1366;SDS011;16877;48.810;9.282;2024-01-30T01:46:23;9.27;;;7.50;;
1366;SDS011;16877;48.810;9.282;2024-01-30T01:48:52;8.33;;;7.53;;
1366;SDS011;16877;48.810;9.282;2024-01-30T01:51:20;10.40;;;7.87;;
1366;SDS011;16877;48.810;9.282;2024-01-30T01:53:49;7.90;;;7.10;;
1366;SDS011;16877;48.810;9.282;2024-01-30T01:56:15;8.07;;;7.10;;
1366;SDS011;16877;48.810;9.282;2024-01-30T01:58:43;7.60;;;6.70;;
1366;SDS011;16877;48.810;9.282;2024-01-30T02:01:12;8.60;;;6.70;;
1366;SDS011;16877;48.810;9.282;2024-01-30T02:03:39;8.20;;;6.77;;
1366;SDS011;16877;48.810;9.282;2024-01-30T02:06:07;8.70;;;7.37;;
1366;SDS011;16877;48.810;9.282;2024-01-30T02:08:35;9.70;;;7.40;;
1366;SDS011;16877;48.810;9.282;2024-01-30T02:11:03;9.40;;;7.23;;
1366;SDS011;16877;48.810;9.282;2024-01-30T02:13:30;7.70;;;7.00;;
1366;SDS011;16877;48.810;9.282;2024-01-30T02:15:57;7.23;;;6.53;;
1366;SDS011;16877;48.810;9.282;2024-01-30T02:18:24;8.33;;;7.33;;
1366;SDS011;16877;48.810;9.282;2024-01-30T02:20:50;8.87;;;7.97;;
1366;SDS011;16877;48.810;9.282;2024-01-30T02:23:20;8.40;;;7.43;;
1366;SDS011;16877;48.810;9.282;2024-01-30T02:25:50;7.70;;;6.90;;
1366;SDS011;16877;48.810;9.282;2024-01-30T02:28:18;8.13;;;6.80;;
1366;SDS011;16877;48.810;9.282;2024-01-30T02:30:45;7.70;;;6.80;;
1366;SDS011;16877;48.810;9.282;2024-01-30T02:33:12;8.10;;;6.97;;
1366;SDS011;16877;48.810;9.282;2024-01-30T02:35:39;7.77;;;6.80;;
1366;SDS011;16877;48.810;9.282;2024-01-30T02:38:06;7.30;;;6.47;;
1366;SDS011;16877;48.810;9.282;2024-01-30T02:40:34;8.33;;;6.83;;
1366;SDS011;16877;48.810;9.282;2024-01-30T02:43:01;7.40;;;6.60;;
1366;SDS011;16877;48.810;9.282;2024-01-30T02:45:28;7.57;;;6.40;;
1366;SDS011;16877;48.810;9.282;2024-01-30T02:47:55;7.83;;;6.97;;
1366;SDS011;16877;48.810;9.282;2024-01-30T02:50:21;7.67;;;6.67;;
1366;SDS011;16877;48.810;9.282;2024-01-30T02:52:48;6.50;;;5.80;;
1366;SDS011;16877;48.810;9.282;2024-01-30T02:55:15;8.80;;;6.60;;
1366;SDS011;16877;48.810;9.282;2024-01-30T02:57:44;9.10;;;6.57;;
1366;SDS011;16877;48.810;9.282;2024-01-30T03:00:11;8.60;;;7.20;;
1366;SDS011;16877;48.810;9.282;2024-01-30T03:02:39;7.53;;;6.83;;
1366;SDS011;16877;48.810;9.282;2024-01-30T03:05:06;7.87;;;7.07;;
1366;SDS011;16877;48.810;9.282;2024-01-30T03:07:34;8.10;;;7.20;;
1366;SDS011;16877;48.810;9.282;2024-01-30T03:10:00;7.10;;;6.40;;
1366;SDS011;16877;48.810;9.282;2024-01-30T03:12:27;6.80;;;6.20;;
1366;SDS011;16877;48.810;9.282;2024-01-30T03:14:55;8.03;;;6.43;;
1366;SDS011;16877;48.810;9.282;2024-01-30T03:17:22;9.10;;;7.43;;
1366;SDS011;16877;48.810;9.282;2024-01-30T03:19:49;8.07;;;7.27;;
1366;SDS011;16877;48.810;9.282;2024-01-30T03:22:16;7.97;;;6.30;;
1366;SDS011;16877;48.810;9.282;2024-01-30T03:24:42;7.37;;;6.63;;
1366;SDS011;16877;48.810;9.282;2024-01-30T03:27:09;6.17;;;5.57;;
1366;SDS011;16877;48.810;9.282;2024-01-30T03:29:36;7.93;;;7.13;;
1366;SDS011;16877;48.810;9.282;2024-01-30T03:32:04;7.77;;;6.50;;
1366;SDS011;16877;48.810;9.282;2024-01-30T03:34:31;10.20;;;6.63;;
1366;SDS011;16877;48.810;9.282;2024-01-30T03:36:58;7.87;;;7.07;;
1366;SDS011;16877;48.810;9.282;2024-01-30T03:39:24;7.33;;;6.23;;
1366;SDS011;16877;48.810;9.282;2024-01-30T03:41:51;8.17;;;7.37;;
1366;SDS011;16877;48.810;9.282;2024-01-30T03:44:18;9.27;;;6.83;;
1366;SDS011;16877;48.810;9.282;2024-01-30T03:46:44;7.47;;;6.53;;
1366;SDS011;16877;48.810;9.282;2024-01-30T03:49:13;7.70;;;6.70;;
1366;SDS011;16877;48.810;9.282;2024-01-30T03:51:40;7.30;;;6.60;;
1366;SDS011;16877;48.810;9.282;2024-01-30T03:54:07;9.03;;;7.00;;
1366;SDS011;16877;48.810;9.282;2024-01-30T03:56:33;7.53;;;6.77;;
1366;SDS011;16877;48.810;9.282;2024-01-30T03:59:00;8.43;;;7.40;;
1366;SDS011;16877;48.810;9.282;2024-01-30T04:01:27;8.20;;;7.30;;
1366;SDS011;16877;48.810;9.282;2024-01-30T04:03:54;8.50;;;7.30;;
1366;SDS011;16877;48.810;9.282;2024-01-30T04:06:22;7.63;;;6.20;;
1366;SDS011;16877;48.810;9.282;2024-01-30T04:08:49;8.00;;;6.70;;
1366;SDS011;16877;48.810;9.282;2024-01-30T04:11:17;7.83;;;7.07;;
1366;SDS011;16877;48.810;9.282;2024-01-30T04:13:44;8.40;;;7.00;;
1366;SDS011;16877;48.810;9.282;2024-01-30T04:16:18;7.97;;;6.70;;
1366;SDS011;16877;48.810;9.282;2024-01-30T04:18:46;7.80;;;7.00;;
1366;SDS011;16877;48.810;9.282;2024-01-30T04:21:13;7.30;;;6.60;;
1366;SDS011;16877;48.810;9.282;2024-01-30T04:23:41;7.57;;;6.80;;
1366;SDS011;16877;48.810;9.282;2024-01-30T04:26:08;7.63;;;6.87;;
1366;SDS011;16877;48.810;9.282;2024-01-30T04:28:34;7.93;;;7.13;;
1366;SDS011;16877;48.810;9.282;2024-01-30T04:31:01;9.07;;;7.77;;
1366;SDS011;16877;48.810;9.282;2024-01-30T04:33:28;8.50;;;7.60;;
1366;SDS011;16877;48.810;9.282;2024-01-30T04:35:54;7.60;;;6.80;;
1366;SDS011;16877;48.810;9.282;2024-01-30T04:38:21;13.53;;;7.53;;
1366;SDS011;16877;48.810;9.282;2024-01-30T04:40:49;8.90;;;8.00;;
1366;SDS011;16877;48.810;9.282;2024-01-30T04:43:16;7.73;;;6.83;;
1366;SDS011;16877;48.810;9.282;2024-01-30T04:45:44;8.33;;;7.43;;
1366;SDS011;16877;48.810;9.282;2024-01-30T04:48:10;8.73;;;7.37;;
1366;SDS011;16877;48.810;9.282;2024-01-30T04:50:37;8.87;;;7.97;;
1366;SDS011;16877;48.810;9.282;2024-01-30T04:53:04;7.80;;;6.80;;
1366;SDS011;16877;48.810;9.282;2024-01-30T04:55:31;9.57;;;7.83;;
1366;SDS011;16877;48.810;9.282;2024-01-30T04:57:59;8.80;;;8.00;;
1366;SDS011;16877;48.810;9.282;2024-01-30T05:00:25;8.77;;;7.97;;
1366;SDS011;16877;48.810;9.282;2024-01-30T05:02:52;9.57;;;7.93;;
1366;SDS011;16877;48.810;9.282;2024-01-30T05:05:18;7.97;;;7.17;;
1366;SDS011;16877;48.810;9.282;2024-01-30T05:07:46;7.80;;;6.93;;
1366;SDS011;16877;48.810;9.282;2024-01-30T05:10:13;10.87;;;7.10;;
1366;SDS011;16877;48.810;9.282;2024-01-30T05:12:40;10.33;;;6.80;;
1366;SDS011;16877;48.810;9.282;2024-01-30T05:15:09;9.07;;;8.00;;
1366;SDS011;16877;48.810;9.282;2024-01-30T05:17:36;8.37;;;6.83;;
1366;SDS011;16877;48.810;9.282;2024-01-30T05:20:02;8.33;;;7.43;;
1366;SDS011;16877;48.810;9.282;2024-01-30T05:22:30;7.80;;;7.00;;
1366;SDS011;16877;48.810;9.282;2024-01-30T05:24:57;8.73;;;7.10;;
1366;SDS011;16877;48.810;9.282;2024-01-30T05:27:24;10.10;;;7.63;;
1366;SDS011;16877;48.810;9.282;2024-01-30T05:29:50;9.47;;;7.77;;
1366;SDS011;16877;48.810;9.282;2024-01-30T05:32:18;8.60;;;7.47;;
1366;SDS011;16877;48.810;9.282;2024-01-30T05:34:45;7.57;;;6.67;;
1366;SDS011;16877;48.810;9.282;2024-01-30T05:37:12;9.13;;;8.23;;
1366;SDS011;16877;48.810;9.282;2024-01-30T05:39:41;9.63;;;7.87;;
1366;SDS011;16877;48.810;9.282;2024-01-30T05:42:08;8.17;;;7.30;;
1366;SDS011;16877;48.810;9.282;2024-01-30T05:44:36;7.87;;;6.97;;
1366;SDS011;16877;48.810;9.282;2024-01-30T05:47:02;8.00;;;7.20;;
1366;SDS011;16877;48.810;9.282;2024-01-30T05:49:31;8.57;;;7.30;;
1366;SDS011;16877;48.810;9.282;2024-01-30T05:51:57;9.53;;;7.03;;
1366;SDS011;16877;48.810;9.282;2024-01-30T05:54:24;8.17;;;7.37;;
1366;SDS011;16877;48.810;9.282;2024-01-30T05:56:51;8.33;;;7.53;;
1366;SDS011;16877;48.810;9.282;2024-01-30T05:59:17;10.13;;;7.20;;
1366;SDS011;16877;48.810;9.282;2024-01-30T06:01:45;8.53;;;7.73;;
1366;SDS011;16877;48.810;9.282;2024-01-30T06:04:12;7.93;;;7.13;;
1366;SDS011;16877;48.810;9.282;2024-01-30T06:06:40;8.33;;;7.30;;
1366;SDS011;16877;48.810;9.282;2024-01-30T06:09:07;7.77;;;6.97;;
1366;SDS011;16877;48.810;9.282;2024-01-30T06:11:34;7.87;;;7.07;;
1366;SDS011;16877;48.810;9.282;2024-01-30T06:14:01;10.77;;;7.23;;
1366;SDS011;16877;48.810;9.282;2024-01-30T06:16:27;8.20;;;7.40;;
1366;SDS011;16877;48.810;9.282;2024-01-30T06:18:54;7.70;;;6.90;;
1366;SDS011;16877;48.810;9.282;2024-01-30T06:21:21;9.53;;;7.43;;
1366;SDS011;16877;48.810;9.282;2024-01-30T06:23:49;7.73;;;6.93;;
1366;SDS011;16877;48.810;9.282;2024-01-30T06:26:16;8.83;;;7.10;;
1366;SDS011;16877;48.810;9.282;2024-01-30T06:28:43;8.17;;;7.03;;
1366;SDS011;16877;48.810;9.282;2024-01-30T06:31:10;9.10;;;8.00;;
1366;SDS011;16877;48.810;9.282;2024-01-30T06:33:36;8.10;;;7.30;;
1366;SDS011;16877;48.810;9.282;2024-01-30T06:36:03;9.30;;;7.50;;
1366;SDS011;16877;48.810;9.282;2024-01-30T06:38:30;7.23;;;6.30;;
1366;SDS011;16877;48.810;9.282;2024-01-30T06:40:58;7.83;;;7.03;;
1366;SDS011;16877;48.810;9.282;2024-01-30T06:43:25;8.70;;;7.80;;
1366;SDS011;16877;48.810;9.282;2024-01-30T06:45:51;7.40;;;6.70;;
1366;SDS011;16877;48.810;9.282;2024-01-30T06:48:18;8.60;;;7.60;;
1366;SDS011;16877;48.810;9.282;2024-01-30T06:50:45;9.70;;;7.13;;
1366;SDS011;16877;48.810;9.282;2024-01-30T06:53:12;8.50;;;7.13;;
1366;SDS011;16877;48.810;9.282;2024-01-30T06:55:39;8.90;;;7.70;;
1366;SDS011;16877;48.810;9.282;2024-01-30T06:58:07;6.97;;;6.27;;
1366;SDS011;16877;48.810;9.282;2024-01-30T07:00:34;8.50;;;7.70;;
1366;SDS011;16877;48.810;9.282;2024-01-30T07:03:01;10.57;;;7.60;;
1366;SDS011;16877;48.810;9.282;2024-01-30T07:05:27;8.13;;;7.20;;
1366;SDS011;16877;48.810;9.282;2024-01-30T07:07:54;9.77;;;8.77;;
1366;SDS011;16877;48.810;9.282;2024-01-30T07:10:21;8.90;;;7.30;;
1366;SDS011;16877;48.810;9.282;2024-01-30T07:12:47;8.77;;;7.30;;
1366;SDS011;16877;48.810;9.282;2024-01-30T07:15:15;8.40;;;7.53;;
1366;SDS011;16877;48.810;9.282;2024-01-30T07:17:45;7.80;;;6.97;;
1366;SDS011;16877;48.810;9.282;2024-01-30T07:20:12;8.40;;;7.53;;
1366;SDS011;16877;48.810;9.282;2024-01-30T07:22:39;9.10;;;7.57;;
1366;SDS011;16877;48.810;9.282;2024-01-30T07:25:06;9.33;;;8.33;;
1366;SDS011;16877;48.810;9.282;2024-01-30T07:27:34;9.60;;;8.50;;
1366;SDS011;16877;48.810;9.282;2024-01-30T07:30:00;8.13;;;7.33;;
1366;SDS011;16877;48.810;9.282;2024-01-30T07:32:28;10.07;;;7.67;;
1366;SDS011;16877;48.810;9.282;2024-01-30T07:34:55;8.57;;;7.20;;
1366;SDS011;16877;48.810;9.282;2024-01-30T07:37:22;8.67;;;7.80;;
1366;SDS011;16877;48.810;9.282;2024-01-30T07:39:48;8.17;;;7.37;;
1366;SDS011;16877;48.810;9.282;2024-01-30T07:42:15;9.10;;;8.20;;
1366;SDS011;16877;48.810;9.282;2024-01-30T07:44:42;9.47;;;7.87;;
1366;SDS011;16877;48.810;9.282;2024-01-30T07:47:09;10.30;;;7.93;;
1366;SDS011;16877;48.810;9.282;2024-01-30T07:49:37;9.00;;;7.60;;
1366;SDS011;16877;48.810;9.282;2024-01-30T07:52:04;9.17;;;8.27;;
1366;SDS011;16877;48.810;9.282;2024-01-30T07:54:31;10.53;;;8.73;;
1366;SDS011;16877;48.810;9.282;2024-01-30T07:56:59;9.30;;;7.70;;
1366;SDS011;16877;48.810;9.282;2024-01-30T07:59:26;10.60;;;8.43;;
1366;SDS011;16877;48.810;9.282;2024-01-30T08:01:53;9.53;;;7.77;;
1366;SDS011;16877;48.810;9.282;2024-01-30T08:04:19;9.13;;;8.03;;
1366;SDS011;16877;48.810;9.282;2024-01-30T08:06:47;9.90;;;8.90;;
1366;SDS011;16877;48.810;9.282;2024-01-30T08:09:14;8.37;;;7.50;;
1366;SDS011;16877;48.810;9.282;2024-01-30T08:11:41;8.63;;;7.60;;
1366;SDS011;16877;48.810;9.282;2024-01-30T08:14:07;9.60;;;7.80;;
1366;SDS011;16877;48.810;9.282;2024-01-30T08:16:34;11.33;;;8.50;;
1366;SDS011;16877;48.810;9.282;2024-01-30T08:19:01;10.47;;;9.37;;
1366;SDS011;16877;48.810;9.282;2024-01-30T08:21:28;10.10;;;8.80;;
1366;SDS011;16877;48.810;9.282;2024-01-30T08:23:56;10.00;;;8.60;;
1366;SDS011;16877;48.810;9.282;2024-01-30T08:26:22;11.90;;;9.40;;
1366;SDS011;16877;48.810;9.282;2024-01-30T08:28:49;9.47;;;7.93;;
1366;SDS011;16877;48.810;9.282;2024-01-30T08:31:16;11.70;;;9.33;;
1366;SDS011;16877;48.810;9.282;2024-01-30T08:33:43;10.13;;;8.60;;
1366;SDS011;16877;48.810;9.282;2024-01-30T08:36:10;10.50;;;8.13;;
1366;SDS011;16877;48.810;9.282;2024-01-30T08:38:36;11.83;;;8.60;;
1366;SDS011;16877;48.810;9.282;2024-01-30T08:41:05;9.10;;;8.20;;
1366;SDS011;16877;48.810;9.282;2024-01-30T08:43:31;9.87;;;8.60;;
1366;SDS011;16877;48.810;9.282;2024-01-30T08:45:58;8.57;;;7.37;;
1366;SDS011;16877;48.810;9.282;2024-01-30T08:48:25;8.47;;;7.67;;
1366;SDS011;16877;48.810;9.282;2024-01-30T08:50:52;10.30;;;7.97;;
1366;SDS011;16877;48.810;9.282;2024-01-30T08:53:19;8.40;;;7.60;;
1366;SDS011;16877;48.810;9.282;2024-01-30T08:55:45;9.67;;;8.67;;
1366;SDS011;16877;48.810;9.282;2024-01-30T08:58:13;9.00;;;8.10;;
1366;SDS011;16877;48.810;9.282;2024-01-30T09:00:40;8.60;;;7.77;;
1366;SDS011;16877;48.810;9.282;2024-01-30T09:03:07;8.93;;;7.73;;
1366;SDS011;16877;48.810;9.282;2024-01-30T09:05:34;9.03;;;7.70;;
1366;SDS011;16877;48.810;9.282;2024-01-30T09:08:00;10.23;;;7.70;;
1366;SDS011;16877;48.810;9.282;2024-01-30T09:10:27;8.30;;;7.50;;
1366;SDS011;16877;48.810;9.282;2024-01-30T09:12:54;9.00;;;7.70;;
1366;SDS011;16877;48.810;9.282;2024-01-30T09:15:22;9.27;;;8.27;;
1366;SDS011;16877;48.810;9.282;2024-01-30T09:17:48;10.97;;;8.67;;
1366;SDS011;16877;48.810;9.282;2024-01-30T09:20:15;9.17;;;8.20;;
1366;SDS011;16877;48.810;9.282;2024-01-30T09:22:42;9.47;;;8.33;;
1366;SDS011;16877;48.810;9.282;2024-01-30T09:25:09;8.43;;;7.60;;
1366;SDS011;16877;48.810;9.282;2024-01-30T09:27:35;9.30;;;7.50;;
1366;SDS011;16877;48.810;9.282;2024-01-30T09:30:02;8.87;;;7.30;;
1366;SDS011;16877;48.810;9.282;2024-01-30T09:32:31;9.53;;;7.50;;
1366;SDS011;16877;48.810;9.282;2024-01-30T09:34:57;8.67;;;7.77;;
1366;SDS011;16877;48.810;9.282;2024-01-30T09:37:24;8.23;;;7.37;;
1366;SDS011;16877;48.810;9.282;2024-01-30T09:39:51;9.40;;;7.83;;
1366;SDS011;16877;48.810;9.282;2024-01-30T09:42:18;8.27;;;7.10;;
1366;SDS011;16877;48.810;9.282;2024-01-30T09:44:52;8.60;;;7.53;;
1366;SDS011;16877;48.810;9.282;2024-01-30T09:47:20;7.73;;;6.93;;
1366;SDS011;16877;48.810;9.282;2024-01-30T09:49:48;8.80;;;7.90;;
1366;SDS011;16877;48.810;9.282;2024-01-30T09:52:15;8.80;;;7.70;;
1366;SDS011;16877;48.810;9.282;2024-01-30T09:54:41;8.03;;;7.23;;
1366;SDS011;16877;48.810;9.282;2024-01-30T09:57:09;7.80;;;7.00;;
1366;SDS011;16877;48.810;9.282;2024-01-30T09:59:37;8.80;;;7.60;;
1366;SDS011;16877;48.810;9.282;2024-01-30T10:02:04;8.43;;;7.50;;
1366;SDS011;16877;48.810;9.282;2024-01-30T10:04:30;7.70;;;6.60;;
1366;SDS011;16877;48.810;9.282;2024-01-30T10:07:01;10.40;;;8.33;;
1366;SDS011;16877;48.810;9.282;2024-01-30T10:09:31;9.33;;;6.90;;
1366;SDS011;16877;48.810;9.282;2024-01-30T10:11:58;10.00;;;7.60;;
1366;SDS011;16877;48.810;9.282;2024-01-30T10:14:25;8.70;;;7.43;;
1366;SDS011;16877;48.810;9.282;2024-01-30T10:16:51;8.50;;;7.40;;
1366;SDS011;16877;48.810;9.282;2024-01-30T10:19:18;11.90;;;7.50;;
1366;SDS011;16877;48.810;9.282;2024-01-30T10:21:45;11.07;;;6.93;;
1366;SDS011;16877;48.810;9.282;2024-01-30T10:24:14;8.50;;;7.20;;
1366;SDS011;16877;48.810;9.282;2024-01-30T10:26:43;9.37;;;7.20;;
1366;SDS011;16877;48.810;9.282;2024-01-30T10:29:09;10.20;;;7.80;;
1366;SDS011;16877;48.810;9.282;2024-01-30T10:31:36;10.37;;;7.27;;
1366;SDS011;16877;48.810;9.282;2024-01-30T10:34:03;8.90;;;7.97;;
1366;SDS011;16877;48.810;9.282;2024-01-30T10:36:30;9.30;;;7.30;;
1366;SDS011;16877;48.810;9.282;2024-01-30T10:39:03;11.63;;;8.00;;
1366;SDS011;16877;48.810;9.282;2024-01-30T10:41:35;7.97;;;6.63;;
1366;SDS011;16877;48.810;9.282;2024-01-30T10:44:10;8.80;;;5.97;;
1366;SDS011;16877;48.810;9.282;2024-01-30T10:46:38;7.23;;;5.87;;
1366;SDS011;16877;48.810;9.282;2024-01-30T10:49:06;10.23;;;7.20;;
1366;SDS011;16877;48.810;9.282;2024-01-30T10:51:33;9.00;;;6.80;;
1366;SDS011;16877;48.810;9.282;2024-01-30T10:54:02;7.00;;;6.03;;
1366;SDS011;16877;48.810;9.282;2024-01-30T10:56:31;8.37;;;6.57;;
1366;SDS011;16877;48.810;9.282;2024-01-30T10:59:01;7.93;;;6.83;;
1366;SDS011;16877;48.810;9.282;2024-01-30T11:01:28;9.90;;;6.10;;
1366;SDS011;16877;48.810;9.282;2024-01-30T11:03:56;8.47;;;7.07;;
1366;SDS011;16877;48.810;9.282;2024-01-30T11:06:23;8.27;;;6.03;;
1366;SDS011;16877;48.810;9.282;2024-01-30T11:08:59;8.30;;;5.73;;
1366;SDS011;16877;48.810;9.282;2024-01-30T11:11:28;6.90;;;6.20;;
1366;SDS011;16877;48.810;9.282;2024-01-30T11:13:54;10.27;;;6.87;;
1366;SDS011;16877;48.810;9.282;2024-01-30T11:16:22;9.90;;;6.93;;
1366;SDS011;16877;48.810;9.282;2024-01-30T11:18:50;9.30;;;6.50;;
1366;SDS011;16877;48.810;9.282;2024-01-30T11:21:17;7.93;;;6.80;;
1366;SDS011;16877;48.810;9.282;2024-01-30T11:23:44;9.07;;;7.33;;
1366;SDS011;16877;48.810;9.282;2024-01-30T11:26:10;7.57;;;6.03;;
1366;SDS011;16877;48.810;9.282;2024-01-30T11:28:37;10.17;;;7.13;;
1366;SDS011;16877;48.810;9.282;2024-01-30T11:31:04;7.93;;;6.40;;
1366;SDS011;16877;48.810;9.282;2024-01-30T11:33:33;9.93;;;6.37;;
1366;SDS011;16877;48.810;9.282;2024-01-30T11:36:00;7.53;;;6.27;;
1366;SDS011;16877;48.810;9.282;2024-01-30T11:38:27;7.47;;;6.20;;
1366;SDS011;16877;48.810;9.282;2024-01-30T11:40:55;9.30;;;6.83;;
1366;SDS011;16877;48.810;9.282;2024-01-30T11:43:22;8.00;;;6.33;;
1366;SDS011;16877;48.810;9.282;2024-01-30T11:45:49;9.87;;;6.37;;
1366;SDS011;16877;48.810;9.282;2024-01-30T11:48:16;8.97;;;7.10;;
1366;SDS011;16877;48.810;9.282;2024-01-30T11:50:44;8.33;;;6.07;;
1366;SDS011;16877;48.810;9.282;2024-01-30T11:53:12;9.10;;;6.83;;
1366;SDS011;16877;48.810;9.282;2024-01-30T11:55:39;11.73;;;7.50;;
1366;SDS011;16877;48.810;9.282;2024-01-30T11:58:06;9.47;;;6.60;;
1366;SDS011;16877;48.810;9.282;2024-01-30T12:00:32;13.90;;;7.23;;
1366;SDS011;16877;48.810;9.282;2024-01-30T12:02:59;8.37;;;6.60;;
1366;SDS011;16877;48.810;9.282;2024-01-30T12:05:27;8.93;;;7.27;;
1366;SDS011;16877;48.810;9.282;2024-01-30T12:07:55;8.83;;;6.63;;
1366;SDS011;16877;48.810;9.282;2024-01-30T12:10:23;7.33;;;6.17;;
1366;SDS011;16877;48.810;9.282;2024-01-30T12:12:51;8.67;;;7.03;;
1366;SDS011;16877;48.810;9.282;2024-01-30T12:15:18;8.67;;;7.33;;
1366;SDS011;16877;48.810;9.282;2024-01-30T12:17:47;9.60;;;6.93;;
1366;SDS011;16877;48.810;9.282;2024-01-30T12:20:14;9.03;;;6.93;;
1366;SDS011;16877;48.810;9.282;2024-01-30T12:22:42;6.50;;;5.80;;
1366;SDS011;16877;48.810;9.282;2024-01-30T12:25:11;8.67;;;6.53;;
1366;SDS011;16877;48.810;9.282;2024-01-30T12:27:38;8.97;;;6.40;;
1366;SDS011;16877;48.810;9.282;2024-01-30T12:30:06;8.20;;;6.77;;
1366;SDS011;16877;48.810;9.282;2024-01-30T12:32:34;9.83;;;6.73;;
1366;SDS011;16877;48.810;9.282;2024-01-30T12:35:02;7.90;;;6.70;;
1366;SDS011;16877;48.810;9.282;2024-01-30T12:37:29;8.43;;;5.60;;
1366;SDS011;16877;48.810;9.282;2024-01-30T12:39:56;8.43;;;6.20;;
1366;SDS011;16877;48.810;9.282;2024-01-30T12:42:24;7.37;;;6.60;;
1366;SDS011;16877;48.810;9.282;2024-01-30T12:44:53;6.87;;;6.17;;
1366;SDS011;16877;48.810;9.282;2024-01-30T12:47:21;10.20;;;5.87;;
1366;SDS011;16877;48.810;9.282;2024-01-30T12:49:47;6.50;;;5.63;;
1366;SDS011;16877;48.810;9.282;2024-01-30T12:52:17;7.27;;;5.80;;
1366;SDS011;16877;48.810;9.282;2024-01-30T12:54:44;7.97;;;6.20;;
1366;SDS011;16877;48.810;9.282;2024-01-30T12:57:11;7.67;;;6.10;;
1366;SDS011;16877;48.810;9.282;2024-01-30T12:59:39;7.80;;;5.60;;
1366;SDS011;16877;48.810;9.282;2024-01-30T13:02:05;8.70;;;6.13;;
1366;SDS011;16877;48.810;9.282;2024-01-30T13:04:34;7.40;;;5.70;;
1366;SDS011;16877;48.810;9.282;2024-01-30T13:07:01;8.37;;;6.13;;
1366;SDS011;16877;48.810;9.282;2024-01-30T13:09:29;8.07;;;6.53;;
1366;SDS011;16877;48.810;9.282;2024-01-30T13:11:56;10.17;;;6.30;;
1366;SDS011;16877;48.810;9.282;2024-01-30T13:14:22;6.60;;;5.90;;
1366;SDS011;16877;48.810;9.282;2024-01-30T13:16:51;7.37;;;5.63;;
1366;SDS011;16877;48.810;9.282;2024-01-30T13:19:17;7.90;;;6.20;;
1366;SDS011;16877;48.810;9.282;2024-01-30T13:21:44;9.40;;;6.37;;
1366;SDS011;16877;48.810;9.282;2024-01-30T13:24:11;7.47;;;6.53;;
1366;SDS011;16877;48.810;9.282;2024-01-30T13:26:38;7.97;;;6.50;;
1366;SDS011;16877;48.810;9.282;2024-01-30T13:29:04;6.60;;;5.60;;
1366;SDS011;16877;48.810;9.282;2024-01-30T13:31:31;8.20;;;7.07;;
1366;SDS011;16877;48.810;9.282;2024-01-30T13:33:59;9.60;;;7.23;;
1366;SDS011;16877;48.810;9.282;2024-01-30T13:36:26;10.23;;;7.10;;
1366;SDS011;16877;48.810;9.282;2024-01-30T13:39:03;8.47;;;7.57;;
1366;SDS011;16877;48.810;9.282;2024-01-30T13:41:33;9.00;;;6.90;;
1366;SDS011;16877;48.810;9.282;2024-01-30T13:44:00;9.10;;;7.27;;
1366;SDS011;16877;48.810;9.282;2024-01-30T13:46:28;8.53;;;7.67;;
1366;SDS011;16877;48.810;9.282;2024-01-30T13:48:55;9.93;;;8.27;;
1366;SDS011;16877;48.810;9.282;2024-01-30T13:51:21;10.37;;;8.00;;
1366;SDS011;16877;48.810;9.282;2024-01-30T13:53:48;13.47;;;7.67;;
1366;SDS011;16877;48.810;9.282;2024-01-30T13:56:16;8.30;;;7.37;;
1366;SDS011;16877;48.810;9.282;2024-01-30T13:58:43;9.90;;;7.57;;
1366;SDS011;16877;48.810;9.282;2024-01-30T14:01:10;9.57;;;7.60;;
1366;SDS011;16877;48.810;9.282;2024-01-30T14:03:37;9.53;;;7.30;;
1366;SDS011;16877;48.810;9.282;2024-01-30T14:06:03;9.67;;;8.10;;
1366;SDS011;16877;48.810;9.282;2024-01-30T14:08:31;11.97;;;7.93;;
1366;SDS011;16877;48.810;9.282;2024-01-30T14:10:58;10.07;;;7.30;;
1366;SDS011;16877;48.810;9.282;2024-01-30T14:13:26;12.33;;;7.67;;
1366;SDS011;16877;48.810;9.282;2024-01-30T14:15:52;8.60;;;7.03;;
1366;SDS011;16877;48.810;9.282;2024-01-30T14:18:19;8.70;;;6.37;;
1366;SDS011;16877;48.810;9.282;2024-01-30T14:20:46;9.30;;;8.40;;
1366;SDS011;16877;48.810;9.282;2024-01-30T14:23:13;7.50;;;6.70;;
1366;SDS011;16877;48.810;9.282;2024-01-30T14:25:39;8.37;;;7.57;;
1366;SDS011;16877;48.810;9.282;2024-01-30T14:28:06;11.53;;;7.70;;
1366;SDS011;16877;48.810;9.282;2024-01-30T14:30:34;9.17;;;8.07;;
1366;SDS011;16877;48.810;9.282;2024-01-30T14:33:01;6.80;;;4.50;;
1366;SDS011;16877;48.810;9.282;2024-01-30T14:35:28;4.20;;;3.70;;
1366;SDS011;16877;48.810;9.282;2024-01-30T14:37:55;6.30;;;5.30;;
1366;SDS011;16877;48.810;9.282;2024-01-30T14:40:21;7.50;;;5.13;;
1366;SDS011;16877;48.810;9.282;2024-01-30T14:42:48;8.03;;;5.40;;
1366;SDS011;16877;48.810;9.282;2024-01-30T14:45:15;6.23;;;4.77;;
1366;SDS011;16877;48.810;9.282;2024-01-30T14:47:43;6.67;;;5.40;;
1366;SDS011;16877;48.810;9.282;2024-01-30T14:50:10;9.53;;;5.03;;
1366;SDS011;16877;48.810;9.282;2024-01-30T14:52:37;5.90;;;4.80;;
1366;SDS011;16877;48.810;9.282;2024-01-30T14:55:05;7.07;;;4.60;;
1366;SDS011;16877;48.810;9.282;2024-01-30T14:57:32;7.07;;;5.07;;